アピア の空港の天気 - METARとTAF

ファレオロ国際空港(サモア) ( NSFA / APW ) - サモア アピア
飛行場実況気象(Metar)
観測時間06/15 10:00 WSST (06/14 21:00 UTC)
風向・風速東北東 4m/s
視程10km以上
天気現象
全天の8割程度の雲 雲底高度 610m
気温31℃
湿度70%
気圧1014hPa
METARNSFA 142100Z 07008KT 9999 BKN020 31/25 Q1014
過去の天気等 Google飛行場航空写真 Wunderground天気予報

過去48時間のMETAR

飛行場予報(TAF)
発表時間: 6/15 06:11 WSST (6/14 17:11 UTC)
予報対象時間: 15日7時 WSST ~ 16日7時 WSST
風向・風速東 5m/s
視程10km以上
少しの雲 雲底高度 610m
全天の8割程度の雲 雲底高度 3050m
15日7時 WSST ~ 16日7時 WSST に 確率 40% で一時的に
視程5000m
天気現象雷雨
全天の8割程度の雲 雲底高度 460m
少しの積乱雲 雲底高度 550m
15日16時 WSST ~ 16日7時 WSST に 確率 30% で一時的に
風向・風速東 8m/s 瞬間風速 13m/s
TAF NSFA 141711Z 1418/1518 10009KT 9999 FEW020 BKN100
PROB40 TEMPO 1418/1518 5000 TSRA BKN015 FEW018CB
PROB30 TEMPO 1503/1518 09015G25KT